Amityville, NY

8:00 PM EDT on August 20, 2014 (GMT -0400)
Kennedy International | Change Station
CLOSE
Current Station
Airport
Location: New York JFK,
Elevation: 23 ft
Nearby Weather Stations

Elev 23 ft 40.64 °N, 73.76 °W | Updated 9 minutes ago

Scattered Clouds
Scattered Clouds
73 °F
Feels Like 73 °F
N
9
Wind Variable Wind from SSE

Today
High -- | Low -- °F
--% Chance of Precip.
Yesterday
High -- | Low -- °F
Precip. -- in
6:08 AM 7:44 PM
Waning Crescent, 18% visible
Pressure 30.02 in
Visibility 10.0 miles
Clouds Scattered Clouds 25000 ft
Dew Point 60 °F
Humidity 64%
Rainfall 0.00 in
Snow Depth Not available.
UV 0 out of 12
Pollen 9.70 out of 12
Air Quality Not available.
Flu Activity Not available.
METAR KJFK 202351Z 15008KT 10SM SCT250 23/16 A3002 RMK AO2 SLP166 T02280156 10267 20228 53005

More Conditions Fewer Conditions

Pressure 30.02 in
Visibility 10.0 miles
Clouds Scattered Clouds 25000 ft
Dew Point 60 °F
Humidity 64%
Rainfall 0.00 in
Snow Depth Not available.
UV 0 out of 12
Pollen 9.70 out of 12
Air Quality Not available.
Flu Activity Not available.
METAR KJFK 202351Z 15008KT 10SM SCT250 23/16 A3002 RMK AO2 SLP166 T02280156 10267 20228 53005

More Conditions Fewer Conditions

10-Day Weather Forecast

Almanac

Astronomy

Aug. 20, 2014 Rise Set
Actual Time 6:08 AM EDT 7:44 PM EDT
Civil Twilight 5:39 AM EDT 8:13 PM EDT
Nautical Twilight 5:04 AM EDT 8:48 PM EDT
Astronomical Twilight 4:27 AM EDT 9:25 PM EDT
Moon 1:46 AM EDT (8/20) 4:27 PM EDT (8/20)
Length of Visible Light 14h 33m
Length of Day
13h 35m
Tomorrow will be 2m 27s shorter.
Waning Crescent, 18% of the Moon is Illuminated
Today
Waning Crescent
Aug 25
New
Sep 2
First Quarter
Sep 8
Full
Sep 15
Last Quarter

Today's Extremes

State Highs State Lows

Community

WunderPhotos

Upload Photos

1,745,807 photos uploaded!

Nearby

Air Quality

  Air Quality AQ Index Pollutant
Yesterday Good
OZONE
Wednesday Good
OZONE
Wednesday Good
PM2.5
Thursday Good
OZONE
Thursday Good
PM2.5

Snow Depth

Station Depth Elevation
No new snow has been reported.

Earthquake Activity

City Distance Mag. Time & Date
Deep River Center, Connecticut 66 miles 2.7 3:09 AM EDT
2014-08-14
Minimum magnitude displayed is 2.5.

Coastal Water Temperatures

Place Temperature
No Stations Reporting

Nearby Weather Stations